createdAt,value
2024-01-05T00:01:46.668Z,1.97
2024-01-05T00:04:14.439Z,2.20
2024-01-05T00:06:42.666Z,1.90
2024-01-05T00:09:10.369Z,1.83
2024-01-05T00:11:37.918Z,2.27
2024-01-05T00:14:05.447Z,2.23
2024-01-05T00:16:32.930Z,2.10
2024-01-05T00:19:00.929Z,2.20
2024-01-05T00:21:29.295Z,2.20
2024-01-05T00:23:58.029Z,2.17
2024-01-05T00:26:26.749Z,2.10
2024-01-05T00:28:54.607Z,2.10
2024-01-05T00:31:22.225Z,2.30
2024-01-05T00:33:49.790Z,1.93
2024-01-05T00:36:17.491Z,2.10
2024-01-05T00:38:48.993Z,1.90
2024-01-05T00:41:17.102Z,2.10
2024-01-05T00:43:44.686Z,2.20
2024-01-05T00:46:12.175Z,2.30
2024-01-05T00:48:39.924Z,2.37
2024-01-05T00:51:07.443Z,2.10
2024-01-05T00:53:34.976Z,1.90
2024-01-05T00:56:02.524Z,1.90
2024-01-05T00:58:32.993Z,2.20
2024-01-05T01:01:00.663Z,2.17
2024-01-05T01:03:28.282Z,2.00
2024-01-05T01:05:55.791Z,2.20
2024-01-05T01:08:23.233Z,2.10
2024-01-05T01:10:50.593Z,2.13
2024-01-05T01:13:18.042Z,2.10
2024-01-05T01:15:45.830Z,2.30
2024-01-05T01:18:13.469Z,2.50
2024-01-05T01:20:41.003Z,2.23
2024-01-05T01:23:08.550Z,1.93
2024-01-05T01:25:36.028Z,2.30
2024-01-05T01:28:04.277Z,2.10
2024-01-05T01:30:31.804Z,2.40
2024-01-05T01:32:59.521Z,2.00
2024-01-05T01:35:26.988Z,2.43
2024-01-05T01:37:54.470Z,2.23
2024-01-05T01:40:22.021Z,2.30
2024-01-05T01:42:50.733Z,2.30
2024-01-05T01:45:18.339Z,2.27
2024-01-05T01:47:46.404Z,2.40
2024-01-05T01:50:14.998Z,2.40
2024-01-05T01:52:44.423Z,2.60
2024-01-05T01:55:12.113Z,2.60
2024-01-05T01:57:39.885Z,2.87
2024-01-05T02:00:08.159Z,2.57
2024-01-05T02:02:36.574Z,3.13
2024-01-05T02:05:04.189Z,2.60
2024-01-05T02:07:31.866Z,2.40
2024-01-05T02:09:59.537Z,3.03
2024-01-05T02:12:27.194Z,3.00
2024-01-05T02:14:54.657Z,3.20
2024-01-05T02:17:32.524Z,3.00
2024-01-05T02:20:00.562Z,3.10
2024-01-05T02:22:31.430Z,3.10
2024-01-05T02:24:59.745Z,3.30
2024-01-05T02:27:28.187Z,3.23
2024-01-05T02:29:55.779Z,3.30
2024-01-05T02:32:23.539Z,3.03
2024-01-05T02:34:51.126Z,3.40
2024-01-05T02:37:18.586Z,3.43
2024-01-05T02:39:46.486Z,3.23
2024-01-05T02:42:14.102Z,3.47
2024-01-05T02:44:41.740Z,3.00
2024-01-05T02:47:09.264Z,3.40
2024-01-05T02:49:36.818Z,3.40
2024-01-05T02:52:04.549Z,3.33
2024-01-05T02:54:32.209Z,3.60
2024-01-05T02:56:59.744Z,4.00
2024-01-05T02:59:27.296Z,3.90
2024-01-05T03:01:55.066Z,3.80
2024-01-05T03:04:22.589Z,3.77
2024-01-05T03:06:50.124Z,3.53
2024-01-05T03:09:17.775Z,3.53
2024-01-05T03:11:45.355Z,4.00
2024-01-05T03:14:14.972Z,3.97
2024-01-05T03:16:42.822Z,4.30
2024-01-05T03:19:10.432Z,4.00
2024-01-05T03:21:38.038Z,3.97
2024-01-05T03:24:05.835Z,3.90
2024-01-05T03:26:33.291Z,4.00
2024-01-05T03:29:01.200Z,4.27
2024-01-05T03:31:28.906Z,4.37
2024-01-05T03:33:56.487Z,3.93
2024-01-05T03:36:23.996Z,4.23
2024-01-05T03:38:52.017Z,4.23
2024-01-05T03:41:19.512Z,4.80
2024-01-05T03:43:49.961Z,4.17
2024-01-05T03:46:17.499Z,4.83
2024-01-05T03:48:45.315Z,4.90
2024-01-05T03:51:12.903Z,4.80
2024-01-05T03:53:40.558Z,4.50
2024-01-05T03:56:09.635Z,5.17
2024-01-05T03:58:37.249Z,5.00
2024-01-05T04:01:04.921Z,5.03
2024-01-05T04:03:32.921Z,5.43
2024-01-05T04:06:00.409Z,5.63
2024-01-05T04:08:28.227Z,5.63
2024-01-05T04:10:55.768Z,6.00
2024-01-05T04:13:23.178Z,5.87
2024-01-05T04:15:50.629Z,6.07
2024-01-05T04:18:18.293Z,6.13
2024-01-05T04:20:45.814Z,6.37
2024-01-05T04:23:13.261Z,6.53
2024-01-05T04:25:40.767Z,6.87
2024-01-05T04:28:08.191Z,6.37
2024-01-05T04:30:37.523Z,6.87
2024-01-05T04:33:05.478Z,6.90
2024-01-05T04:35:33.255Z,6.80
2024-01-05T04:38:00.713Z,7.23
2024-01-05T04:40:28.386Z,7.20
2024-01-05T04:42:55.788Z,7.40
2024-01-05T04:45:23.466Z,7.50
2024-01-05T04:47:50.980Z,7.40
2024-01-05T04:50:18.507Z,7.60
2024-01-05T04:52:46.035Z,8.40
2024-01-05T04:55:16.391Z,7.83
2024-01-05T04:57:46.391Z,7.60
2024-01-05T05:00:14.847Z,7.13
2024-01-05T05:02:42.306Z,7.80
2024-01-05T05:05:09.945Z,7.90
2024-01-05T05:07:38.015Z,7.10
2024-01-05T05:10:06.043Z,7.23
2024-01-05T05:12:33.581Z,7.33
2024-01-05T05:15:01.283Z,7.87
2024-01-05T05:17:29.049Z,7.60
2024-01-05T05:19:56.781Z,8.53
2024-01-05T05:22:24.603Z,8.07
2024-01-05T05:24:52.140Z,8.33
2024-01-05T05:27:20.027Z,7.53
2024-01-05T05:29:47.774Z,7.50
2024-01-05T05:32:15.287Z,7.70
2024-01-05T05:34:45.823Z,8.33
2024-01-05T05:37:13.495Z,7.87
2024-01-05T05:39:41.110Z,7.83
2024-01-05T05:42:08.737Z,7.60
2024-01-05T05:44:36.258Z,8.23
2024-01-05T05:47:03.741Z,8.70
2024-01-05T05:49:31.215Z,8.27
2024-01-05T05:51:58.752Z,7.77
2024-01-05T05:54:26.753Z,8.47
2024-01-05T05:56:54.546Z,7.90
2024-01-05T05:59:22.022Z,8.70
2024-01-05T06:01:49.547Z,8.00
2024-01-05T06:04:18.236Z,8.57
2024-01-05T06:06:46.076Z,8.27
2024-01-05T06:09:15.797Z,8.30
2024-01-05T06:11:43.568Z,8.67
2024-01-05T06:14:11.262Z,8.63
2024-01-05T06:16:38.769Z,8.17
2024-01-05T06:19:06.295Z,8.40
2024-01-05T06:21:33.869Z,8.50
2024-01-05T06:24:01.490Z,8.90
2024-01-05T06:26:28.965Z,9.00
2024-01-05T06:28:56.480Z,8.63
2024-01-05T06:31:24.504Z,8.63
2024-01-05T06:33:52.253Z,9.10
2024-01-05T06:36:19.764Z,8.80
2024-01-05T06:38:47.377Z,10.03
2024-01-05T06:41:14.832Z,9.60
2024-01-05T06:43:42.595Z,10.10
2024-01-05T06:46:10.214Z,10.23
2024-01-05T06:48:37.789Z,9.63
2024-01-05T06:51:05.795Z,11.43
2024-01-05T06:53:33.509Z,11.07
2024-01-05T06:56:01.555Z,10.50
2024-01-05T06:58:29.174Z,10.43
2024-01-05T07:00:58.250Z,10.07
2024-01-05T07:03:25.940Z,10.70
2024-01-05T07:05:53.476Z,12.47
2024-01-05T07:08:20.974Z,12.13
2024-01-05T07:10:48.730Z,13.03
2024-01-05T07:13:16.233Z,12.83
2024-01-05T07:15:43.738Z,13.27
2024-01-05T07:18:11.351Z,14.00
2024-01-05T07:20:38.901Z,15.30
2024-01-05T07:23:06.382Z,15.30
2024-01-05T07:25:34.900Z,14.30
2024-01-05T07:28:03.341Z,15.07
2024-01-05T07:30:31.069Z,15.53
2024-01-05T07:32:58.941Z,13.90
2024-01-05T07:35:27.192Z,13.17
2024-01-05T07:37:55.597Z,13.30
2024-01-05T07:40:23.240Z,13.90
2024-01-05T07:42:50.818Z,14.60
2024-01-05T07:45:18.414Z,14.00
2024-01-05T07:47:49.228Z,14.23
2024-01-05T07:50:17.154Z,13.93
2024-01-05T07:52:45.243Z,13.60
2024-01-05T07:55:12.947Z,13.27
2024-01-05T07:57:41.274Z,15.10
2024-01-05T08:00:09.272Z,14.80
2024-01-05T08:02:36.784Z,15.57
2024-01-05T08:05:04.340Z,15.60
2024-01-05T08:07:31.838Z,15.30
2024-01-05T08:09:59.477Z,15.93
2024-01-05T08:12:27.568Z,16.60
2024-01-05T08:14:55.163Z,17.40
2024-01-05T08:17:22.735Z,17.90
2024-01-05T08:19:50.416Z,15.30
2024-01-05T08:22:17.944Z,16.40
2024-01-05T08:24:45.404Z,15.53
2024-01-05T08:27:13.103Z,15.30
2024-01-05T08:29:40.634Z,14.00
2024-01-05T08:32:08.157Z,14.37
2024-01-05T08:34:35.781Z,16.43
2024-01-05T08:37:03.369Z,16.33
2024-01-05T08:39:30.999Z,16.90
2024-01-05T08:41:58.802Z,16.50
2024-01-05T08:44:26.256Z,15.10
2024-01-05T08:46:55.451Z,14.90
2024-01-05T08:49:22.990Z,15.83
2024-01-05T08:51:50.621Z,14.33
2024-01-05T08:54:18.141Z,15.50
2024-01-05T08:56:46.282Z,16.17
2024-01-05T08:59:13.942Z,14.87
2024-01-05T09:01:41.660Z,14.47
2024-01-05T09:04:11.908Z,14.97
2024-01-05T09:06:40.098Z,14.33
2024-01-05T09:09:10.698Z,14.77
2024-01-05T09:11:40.401Z,15.80
2024-01-05T09:14:08.831Z,15.30
2024-01-05T09:16:36.317Z,15.23
2024-01-05T09:19:04.136Z,16.13
2024-01-05T09:21:31.984Z,15.87
2024-01-05T09:23:59.649Z,14.67
2024-01-05T09:26:27.334Z,16.00
2024-01-05T09:28:55.168Z,13.93
2024-01-05T09:31:23.600Z,15.03
2024-01-05T09:33:51.577Z,14.37
2024-01-05T09:36:21.908Z,13.83
2024-01-05T09:38:50.395Z,12.97
2024-01-05T09:41:19.213Z,13.00
2024-01-05T09:43:50.671Z,11.53
2024-01-05T09:46:23.664Z,12.10
2024-01-05T09:49:05.140Z,11.73
2024-01-05T09:51:34.129Z,11.20
2024-01-05T09:54:02.429Z,11.60
2024-01-05T09:56:31.158Z,11.00
2024-01-05T09:58:58.972Z,10.53
2024-01-05T10:01:27.366Z,10.93
2024-01-05T10:03:58.459Z,10.77
2024-01-05T10:06:26.912Z,10.67
2024-01-05T10:08:56.091Z,11.00
2024-01-05T10:11:36.965Z,10.87
2024-01-05T10:14:06.239Z,11.30
2024-01-05T10:16:45.175Z,11.80
2024-01-05T10:19:16.769Z,11.90
2024-01-05T10:21:45.546Z,11.90
2024-01-05T10:24:17.194Z,11.70
2024-01-05T10:26:45.523Z,12.67
2024-01-05T10:29:19.166Z,12.53
2024-01-05T10:31:46.751Z,12.07
2024-01-05T10:34:14.385Z,12.67
2024-01-05T10:36:42.243Z,12.40
2024-01-05T10:39:10.458Z,12.77
2024-01-05T10:41:38.402Z,13.47
2024-01-05T10:44:06.448Z,13.07
2024-01-05T10:46:34.206Z,14.03
2024-01-05T10:49:02.517Z,13.87
2024-01-05T10:51:31.205Z,13.07
2024-01-05T10:53:59.139Z,13.10
2024-01-05T10:56:30.237Z,13.17
2024-01-05T10:58:58.164Z,13.23
2024-01-05T11:01:27.187Z,13.43
2024-01-05T11:03:55.686Z,13.93
2024-01-05T11:06:24.012Z,13.80
2024-01-05T11:08:54.311Z,13.17
2024-01-05T11:11:40.603Z,12.93
2024-01-05T11:14:14.582Z,12.67
2024-01-05T11:17:05.150Z,13.70
2024-01-05T11:19:50.986Z,13.30
2024-01-05T11:22:26.273Z,12.40
2024-01-05T11:24:54.114Z,12.77
2024-01-05T11:27:32.306Z,13.90
2024-01-05T11:30:00.347Z,13.60
2024-01-05T11:32:37.577Z,13.70
2024-01-05T11:35:07.121Z,13.30
2024-01-05T11:37:34.892Z,15.00
2024-01-05T11:40:02.764Z,14.30
2024-01-05T11:42:30.828Z,14.13
2024-01-05T11:44:59.592Z,14.27
2024-01-05T11:47:41.499Z,14.20
2024-01-05T11:50:25.031Z,13.97
2024-01-05T11:53:08.053Z,14.13
2024-01-05T11:55:40.877Z,14.63
2024-01-05T11:58:09.435Z,13.73
2024-01-05T12:00:37.306Z,13.03
2024-01-05T12:03:06.030Z,15.03
2024-01-05T12:05:33.997Z,15.10
2024-01-05T12:08:01.729Z,14.57
2024-01-05T12:10:29.710Z,13.70
2024-01-05T12:12:57.080Z,12.93
2024-01-05T12:15:25.169Z,13.37
2024-01-05T12:18:03.344Z,14.00
2024-01-05T12:20:31.614Z,12.83
2024-01-05T12:22:59.377Z,12.63
2024-01-05T12:25:26.961Z,12.73
2024-01-05T12:27:54.932Z,12.63
2024-01-05T12:30:23.338Z,12.57
2024-01-05T12:32:51.276Z,11.63
2024-01-05T12:35:19.919Z,12.80
2024-01-05T12:37:53.875Z,12.73
2024-01-05T12:40:24.875Z,12.43
2024-01-05T12:42:53.866Z,12.13
2024-01-05T12:45:25.662Z,13.83
2024-01-05T12:47:53.620Z,12.63
2024-01-05T12:50:27.840Z,13.73
2024-01-05T12:52:56.118Z,12.73
2024-01-05T12:55:33.590Z,13.80
2024-01-05T12:58:04.201Z,13.40
2024-01-05T13:00:32.376Z,12.70
2024-01-05T13:02:59.949Z,13.03
2024-01-05T13:05:30.930Z,12.90
2024-01-05T13:07:59.456Z,12.93
2024-01-05T13:10:30.329Z,13.57
2024-01-05T13:12:58.247Z,12.80
2024-01-05T13:15:26.314Z,13.47
2024-01-05T13:17:53.945Z,13.53
2024-01-05T13:20:25.755Z,13.97
2024-01-05T13:22:57.316Z,13.43
2024-01-05T13:25:25.129Z,14.13
2024-01-05T13:27:52.768Z,15.27
2024-01-05T13:30:20.499Z,15.17
2024-01-05T13:32:50.091Z,14.43
2024-01-05T13:35:18.508Z,15.87
2024-01-05T13:37:46.189Z,15.33
2024-01-05T13:40:13.771Z,15.37
2024-01-05T13:42:41.362Z,17.30
2024-01-05T13:45:09.722Z,15.67
2024-01-05T13:47:37.345Z,16.50
2024-01-05T13:50:05.447Z,15.10
2024-01-05T13:52:32.998Z,16.07
2024-01-05T13:55:00.530Z,14.90
2024-01-05T13:57:28.578Z,15.80
2024-01-05T13:59:56.086Z,14.93
2024-01-05T14:02:25.875Z,15.50
2024-01-05T14:04:53.668Z,15.17
2024-01-05T14:07:21.264Z,15.27
2024-01-05T14:09:48.786Z,16.57
2024-01-05T14:12:16.523Z,16.47
2024-01-05T14:14:44.589Z,16.27
2024-01-05T14:17:12.123Z,16.23
2024-01-05T14:19:42.382Z,16.23
2024-01-05T14:22:10.212Z,16.07
2024-01-05T14:24:40.742Z,16.63
2024-01-05T14:27:08.682Z,16.70
2024-01-05T14:29:36.275Z,16.03
2024-01-05T14:32:04.537Z,13.47
2024-01-05T14:34:33.188Z,17.30
2024-01-05T14:37:01.081Z,17.43
2024-01-05T14:39:29.993Z,17.93
2024-01-05T14:41:57.702Z,16.40
2024-01-05T14:44:26.942Z,17.87
2024-01-05T14:46:55.874Z,16.77
2024-01-05T14:49:23.478Z,17.03
2024-01-05T14:51:52.860Z,18.70
2024-01-05T14:54:20.712Z,18.67
2024-01-05T14:56:48.471Z,17.50
2024-01-05T14:59:16.004Z,17.97
2024-01-05T15:01:43.814Z,17.50
2024-01-05T15:04:11.658Z,17.20
2024-01-05T15:06:39.430Z,17.30
2024-01-05T15:09:07.014Z,17.30
2024-01-05T15:11:34.565Z,18.27
2024-01-05T15:14:05.190Z,17.50
2024-01-05T15:16:39.071Z,17.30
2024-01-05T15:19:07.213Z,18.43
2024-01-05T15:21:35.058Z,16.40
2024-01-05T15:24:02.924Z,18.53
2024-01-05T15:26:31.123Z,18.57
2024-01-05T15:29:03.964Z,17.67
2024-01-05T15:31:31.828Z,17.40
2024-01-05T15:33:59.649Z,17.77
2024-01-05T15:36:27.380Z,18.30
2024-01-05T15:38:55.374Z,18.17
2024-01-05T15:41:22.979Z,17.57
2024-01-05T15:43:50.980Z,18.10
2024-01-05T15:46:19.992Z,18.20
2024-01-05T15:48:48.170Z,18.73
2024-01-05T15:51:16.911Z,18.50
2024-01-05T15:53:44.656Z,18.90
2024-01-05T15:56:12.286Z,19.93
2024-01-05T15:58:39.933Z,20.50
2024-01-05T16:01:07.748Z,21.00
2024-01-05T16:03:35.397Z,20.13
2024-01-05T16:06:03.110Z,20.97
2024-01-05T16:08:30.833Z,20.90
2024-01-05T16:10:59.957Z,24.10
2024-01-05T16:13:28.877Z,22.37
2024-01-05T16:16:11.058Z,24.30
2024-01-05T16:18:38.628Z,24.17
2024-01-05T16:21:06.416Z,26.17
2024-01-05T16:23:33.924Z,26.43
2024-01-05T16:26:01.848Z,25.83
2024-01-05T16:28:29.490Z,27.37
2024-01-05T16:30:57.516Z,28.10
2024-01-05T16:33:28.681Z,26.53
2024-01-05T16:35:56.146Z,27.13
2024-01-05T16:38:23.887Z,25.27
2024-01-05T16:40:51.531Z,24.63
2024-01-05T16:43:19.095Z,24.33
2024-01-05T16:45:46.869Z,24.37
2024-01-05T16:48:14.715Z,24.50
2024-01-05T16:50:43.010Z,23.83
2024-01-05T16:53:10.829Z,25.63
2024-01-05T16:55:41.697Z,25.33
2024-01-05T16:58:09.998Z,25.90
2024-01-05T17:00:37.951Z,25.47
2024-01-05T17:03:06.103Z,24.97
2024-01-05T17:05:33.859Z,27.50
2024-01-05T17:08:01.664Z,24.90
2024-01-05T17:10:29.183Z,25.40
2024-01-05T17:12:56.674Z,26.33
2024-01-05T17:15:24.204Z,23.87
2024-01-05T17:17:52.758Z,26.90
2024-01-05T17:20:25.143Z,25.83
2024-01-05T17:22:53.927Z,28.80
2024-01-05T17:25:21.628Z,29.83
2024-01-05T17:27:49.142Z,28.60
2024-01-05T17:30:17.013Z,28.83
2024-01-05T17:32:46.528Z,32.43
2024-01-05T17:35:14.301Z,29.33
2024-01-05T17:37:41.802Z,31.20
2024-01-05T17:40:10.752Z,26.53
2024-01-05T17:42:39.548Z,27.13
2024-01-05T17:45:07.524Z,30.07
2024-01-05T17:47:35.170Z,28.87
2024-01-05T17:50:03.301Z,28.53
2024-01-05T17:52:30.962Z,28.10
2024-01-05T17:54:58.402Z,28.63
2024-01-05T17:57:26.302Z,28.93
2024-01-05T17:59:54.193Z,29.70
2024-01-05T18:02:21.684Z,29.93
2024-01-05T18:04:49.207Z,29.50
2024-01-05T18:07:18.370Z,32.30
2024-01-05T18:09:46.243Z,30.83
2024-01-05T18:12:13.892Z,31.33
2024-01-05T18:14:43.853Z,31.73
2024-01-05T18:17:11.442Z,31.90
2024-01-05T18:19:39.881Z,32.80
2024-01-05T18:22:07.675Z,32.53
2024-01-05T18:24:35.283Z,33.30
2024-01-05T18:27:03.366Z,31.67
2024-01-05T18:29:31.519Z,34.93
2024-01-05T18:31:59.706Z,33.93
2024-01-05T18:34:27.790Z,34.47
2024-01-05T18:36:55.971Z,33.47
2024-01-05T18:39:23.740Z,33.90
2024-01-05T18:41:51.481Z,32.57
2024-01-05T18:44:19.327Z,34.87
2024-01-05T18:46:49.252Z,33.70
2024-01-05T18:49:18.506Z,33.33
2024-01-05T18:51:46.053Z,32.90
2024-01-05T18:54:13.906Z,33.67
2024-01-05T18:56:42.086Z,32.53
2024-01-05T18:59:09.718Z,34.63
2024-01-05T19:01:37.228Z,33.70
2024-01-05T19:04:04.962Z,31.33
2024-01-05T19:06:32.930Z,34.50
2024-01-05T19:09:00.808Z,36.00
2024-01-05T19:11:28.319Z,33.00
2024-01-05T19:13:55.845Z,36.23
2024-01-05T19:16:24.575Z,36.43
2024-01-05T19:18:52.167Z,32.57
2024-01-05T19:21:19.814Z,34.43
2024-01-05T19:23:47.499Z,35.17
2024-01-05T19:26:23.881Z,34.23
2024-01-05T19:28:51.620Z,34.97
2024-01-05T19:31:19.268Z,34.97
2024-01-05T19:33:46.975Z,34.33
2024-01-05T19:36:16.654Z,35.57
2024-01-05T19:38:44.503Z,34.70
2024-01-05T19:41:11.987Z,36.67
2024-01-05T19:43:39.936Z,34.73
2024-01-05T19:46:07.706Z,36.43
2024-01-05T19:48:36.845Z,36.30
2024-01-05T19:51:05.190Z,36.80
2024-01-05T19:53:32.926Z,37.67
2024-01-05T19:56:00.690Z,37.43
2024-01-05T19:58:28.192Z,39.07
2024-01-05T20:00:56.032Z,39.20
2024-01-05T20:03:24.131Z,39.10
2024-01-05T20:05:52.348Z,39.50
2024-01-05T20:08:20.761Z,37.90
2024-01-05T20:10:48.454Z,39.30
2024-01-05T20:13:16.349Z,38.70
2024-01-05T20:15:44.074Z,39.60
2024-01-05T20:18:11.894Z,37.33
2024-01-05T20:20:39.497Z,37.13
2024-01-05T20:23:07.120Z,38.70
2024-01-05T20:25:34.679Z,38.93
2024-01-05T20:28:02.163Z,39.10
2024-01-05T20:30:30.593Z,38.07
2024-01-05T20:32:58.234Z,37.90
2024-01-05T20:35:28.666Z,38.47
2024-01-05T20:37:56.288Z,38.60
2024-01-05T20:40:24.002Z,38.43
2024-01-05T20:42:51.766Z,39.50
2024-01-05T20:45:19.416Z,39.67
2024-01-05T20:47:47.120Z,38.80
2024-01-05T20:50:14.902Z,37.67
2024-01-05T20:52:42.501Z,38.47
2024-01-05T20:55:10.257Z,37.90
2024-01-05T20:57:38.170Z,39.40
2024-01-05T21:00:06.816Z,40.40
2024-01-05T21:02:34.413Z,40.17
2024-01-05T21:05:02.029Z,38.37
2024-01-05T21:07:29.823Z,40.33
2024-01-05T21:09:57.595Z,39.63
2024-01-05T21:12:25.071Z,39.57
2024-01-05T21:14:52.717Z,39.50
2024-01-05T21:17:20.466Z,40.37
2024-01-05T21:19:48.055Z,41.23
2024-01-05T21:22:16.147Z,39.43
2024-01-05T21:24:44.516Z,42.13
2024-01-05T21:27:12.176Z,41.00
2024-01-05T21:29:46.307Z,42.00
2024-01-05T21:32:14.490Z,39.67
2024-01-05T21:34:42.874Z,41.93
2024-01-05T21:37:12.002Z,39.77
2024-01-05T21:39:39.692Z,41.43
2024-01-05T21:42:08.634Z,40.73
2024-01-05T21:44:36.172Z,40.90
2024-01-05T21:47:03.814Z,40.70
2024-01-05T21:49:31.552Z,39.80
2024-01-05T21:52:00.234Z,40.20
2024-01-05T21:54:27.761Z,38.10
2024-01-05T21:56:55.357Z,40.00
2024-01-05T21:59:23.790Z,41.77
2024-01-05T22:01:51.368Z,40.27
2024-01-05T22:04:19.107Z,40.43
2024-01-05T22:06:46.953Z,41.33
2024-01-05T22:09:14.635Z,40.37
2024-01-05T22:11:45.561Z,41.10
2024-01-05T22:14:13.588Z,39.67
2024-01-05T22:16:41.565Z,41.77
2024-01-05T22:19:09.254Z,42.93
2024-01-05T22:21:37.961Z,40.90
2024-01-05T22:24:05.805Z,43.70
2024-01-05T22:26:37.347Z,43.00
2024-01-05T22:29:05.238Z,43.57
2024-01-05T22:31:33.855Z,41.37
2024-01-05T22:34:02.080Z,43.50
2024-01-05T22:36:29.903Z,43.23
2024-01-05T22:38:57.620Z,44.03
2024-01-05T22:41:25.280Z,43.33
2024-01-05T22:43:53.622Z,44.17
2024-01-05T22:46:22.696Z,45.13
2024-01-05T22:48:50.990Z,44.70
2024-01-05T22:51:25.932Z,42.90
2024-01-05T22:53:53.589Z,43.93
2024-01-05T22:56:21.316Z,45.00
2024-01-05T22:58:48.961Z,45.10
2024-01-05T23:01:18.472Z,46.93
2024-01-05T23:03:46.787Z,46.87
2024-01-05T23:06:14.547Z,44.60
2024-01-05T23:08:42.175Z,44.97
2024-01-05T23:11:10.295Z,46.03
2024-01-05T23:13:38.475Z,46.77
2024-01-05T23:16:06.293Z,45.60
2024-01-05T23:18:34.070Z,46.00
2024-01-05T23:21:02.181Z,47.10
2024-01-05T23:23:29.680Z,45.87
2024-01-05T23:25:57.100Z,45.40
2024-01-05T23:28:25.775Z,45.37
2024-01-05T23:30:53.603Z,46.93
2024-01-05T23:33:21.582Z,45.53
2024-01-05T23:35:49.256Z,45.47
2024-01-05T23:38:18.095Z,45.37
2024-01-05T23:40:45.642Z,44.73
2024-01-05T23:43:13.596Z,45.23
2024-01-05T23:45:41.131Z,45.23
2024-01-05T23:48:09.039Z,46.13
2024-01-05T23:50:36.764Z,44.90
2024-01-05T23:53:05.923Z,42.83
2024-01-05T23:55:33.868Z,45.30
2024-01-05T23:58:01.418Z,44.23
